CheckWX is a tool to help pilots better visualize weather data.  It is not intended as a substitute for an official pre-flight weather briefing.

08:02:36 UTC

WBGB TAF
Bintulu Airport
Bintulu, Malaysia
TAF WBGB 190500Z 1906/2006 VRB03KT 9999 SCT017

Mar-19@
06:00 UTC

Mar-19 @ 06:00 UTC

Mar-20@
06:00 UTC

Mar-20 @ 06:00 UTC

TAF WBGB 190500Z 1906/2006 VRB03KT 9999 SCT017
Wind
  • Variable at 3 KTS
Cloud Levels
  • Scattered at 1,700' AGL